sensor_id;sensor_type;location;lat;lon;timestamp;P1;durP1;ratioP1;P2;durP2;ratioP2
49890;SDS011;35780;55.568;37.492;2023-03-16T00:00:12;20.60;;;13.80;;
49890;SDS011;35780;55.568;37.492;2023-03-16T00:02:39;29.98;;;17.35;;
49890;SDS011;35780;55.568;37.492;2023-03-16T00:05:05;22.83;;;15.57;;
49890;SDS011;35780;55.568;37.492;2023-03-16T00:07:32;23.88;;;15.30;;
49890;SDS011;35780;55.568;37.492;2023-03-16T00:09:58;22.13;;;14.23;;
49890;SDS011;35780;55.568;37.492;2023-03-16T00:12:24;26.83;;;16.63;;
49890;SDS011;35780;55.568;37.492;2023-03-16T00:14:50;27.48;;;16.52;;
49890;SDS011;35780;55.568;37.492;2023-03-16T00:17:16;18.92;;;13.90;;
49890;SDS011;35780;55.568;37.492;2023-03-16T00:19:47;25.05;;;16.73;;
49890;SDS011;35780;55.568;37.492;2023-03-16T00:22:19;37.05;;;18.27;;
49890;SDS011;35780;55.568;37.492;2023-03-16T00:24:45;26.75;;;18.73;;
49890;SDS011;35780;55.568;37.492;2023-03-16T00:27:12;22.70;;;16.30;;
49890;SDS011;35780;55.568;37.492;2023-03-16T00:29:45;28.15;;;18.65;;
49890;SDS011;35780;55.568;37.492;2023-03-16T00:32:13;26.05;;;18.60;;
49890;SDS011;35780;55.568;37.492;2023-03-16T00:34:43;25.35;;;19.58;;
49890;SDS011;35780;55.568;37.492;2023-03-16T00:37:09;33.35;;;21.02;;
49890;SDS011;35780;55.568;37.492;2023-03-16T00:39:38;28.98;;;20.60;;
49890;SDS011;35780;55.568;37.492;2023-03-16T00:42:05;27.13;;;17.77;;
49890;SDS011;35780;55.568;37.492;2023-03-16T00:44:30;29.58;;;19.77;;
49890;SDS011;35780;55.568;37.492;2023-03-16T00:46:56;28.42;;;21.10;;
49890;SDS011;35780;55.568;37.492;2023-03-16T00:49:21;33.72;;;20.00;;
49890;SDS011;35780;55.568;37.492;2023-03-16T00:51:47;28.73;;;19.67;;
49890;SDS011;35780;55.568;37.492;2023-03-16T00:54:12;28.88;;;17.23;;
49890;SDS011;35780;55.568;37.492;2023-03-16T00:56:38;34.33;;;22.05;;
49890;SDS011;35780;55.568;37.492;2023-03-16T00:59:03;30.45;;;20.55;;
49890;SDS011;35780;55.568;37.492;2023-03-16T01:01:30;40.92;;;23.42;;
49890;SDS011;35780;55.568;37.492;2023-03-16T01:03:57;27.92;;;21.25;;
49890;SDS011;35780;55.568;37.492;2023-03-16T01:06:24;29.00;;;22.33;;
49890;SDS011;35780;55.568;37.492;2023-03-16T01:08:50;32.97;;;22.13;;
49890;SDS011;35780;55.568;37.492;2023-03-16T01:11:18;30.55;;;21.80;;
49890;SDS011;35780;55.568;37.492;2023-03-16T01:13:45;25.75;;;16.75;;
49890;SDS011;35780;55.568;37.492;2023-03-16T01:16:11;23.52;;;13.52;;
49890;SDS011;35780;55.568;37.492;2023-03-16T01:18:37;31.70;;;22.42;;
49890;SDS011;35780;55.568;37.492;2023-03-16T01:21:04;32.67;;;21.92;;
49890;SDS011;35780;55.568;37.492;2023-03-16T01:23:32;33.65;;;21.08;;
49890;SDS011;35780;55.568;37.492;2023-03-16T01:25:58;30.58;;;23.00;;
49890;SDS011;35780;55.568;37.492;2023-03-16T01:28:25;36.38;;;20.70;;
49890;SDS011;35780;55.568;37.492;2023-03-16T01:30:53;34.20;;;22.10;;
49890;SDS011;35780;55.568;37.492;2023-03-16T01:33:22;31.08;;;20.08;;
49890;SDS011;35780;55.568;37.492;2023-03-16T01:35:55;27.80;;;17.83;;
49890;SDS011;35780;55.568;37.492;2023-03-16T01:38:21;30.55;;;20.35;;
49890;SDS011;35780;55.568;37.492;2023-03-16T01:40:48;29.27;;;21.42;;
49890;SDS011;35780;55.568;37.492;2023-03-16T01:43:16;29.73;;;19.52;;
49890;SDS011;35780;55.568;37.492;2023-03-16T01:51:02;33.33;;;20.10;;
49890;SDS011;35780;55.568;37.492;2023-03-16T01:53:29;31.33;;;20.70;;
49890;SDS011;35780;55.568;37.492;2023-03-16T01:55:58;28.92;;;19.73;;
49890;SDS011;35780;55.568;37.492;2023-03-16T01:58:26;29.42;;;20.17;;
49890;SDS011;35780;55.568;37.492;2023-03-16T02:00:53;30.83;;;18.98;;
49890;SDS011;35780;55.568;37.492;2023-03-16T02:03:18;28.38;;;20.75;;
49890;SDS011;35780;55.568;37.492;2023-03-16T02:08:17;30.77;;;18.27;;
49890;SDS011;35780;55.568;37.492;2023-03-16T02:10:43;30.77;;;20.27;;
49890;SDS011;35780;55.568;37.492;2023-03-16T02:13:10;28.80;;;19.73;;
49890;SDS011;35780;55.568;37.492;2023-03-16T02:15:36;27.02;;;19.63;;
49890;SDS011;35780;55.568;37.492;2023-03-16T02:18:01;26.40;;;16.63;;
49890;SDS011;35780;55.568;37.492;2023-03-16T02:23:03;28.88;;;18.92;;
49890;SDS011;35780;55.568;37.492;2023-03-16T02:30:35;28.83;;;18.88;;
49890;SDS011;35780;55.568;37.492;2023-03-16T02:33:01;29.20;;;20.23;;
49890;SDS011;35780;55.568;37.492;2023-03-16T02:35:29;26.70;;;18.77;;
49890;SDS011;35780;55.568;37.492;2023-03-16T02:37:55;32.85;;;19.70;;
49890;SDS011;35780;55.568;37.492;2023-03-16T02:40:22;23.33;;;18.67;;
49890;SDS011;35780;55.568;37.492;2023-03-16T02:42:54;39.05;;;18.40;;
49890;SDS011;35780;55.568;37.492;2023-03-16T02:45:22;27.52;;;19.33;;
49890;SDS011;35780;55.568;37.492;2023-03-16T02:47:49;23.77;;;18.13;;
49890;SDS011;35780;55.568;37.492;2023-03-16T02:50:17;26.52;;;18.10;;
49890;SDS011;35780;55.568;37.492;2023-03-16T02:52:43;22.67;;;17.15;;
49890;SDS011;35780;55.568;37.492;2023-03-16T02:55:09;24.33;;;17.10;;
49890;SDS011;35780;55.568;37.492;2023-03-16T02:57:35;30.42;;;17.85;;
49890;SDS011;35780;55.568;37.492;2023-03-16T03:00:01;35.05;;;18.98;;
49890;SDS011;35780;55.568;37.492;2023-03-16T03:02:30;28.38;;;19.25;;
49890;SDS011;35780;55.568;37.492;2023-03-16T03:04:56;29.30;;;18.60;;
49890;SDS011;35780;55.568;37.492;2023-03-16T03:07:21;26.48;;;18.83;;
49890;SDS011;35780;55.568;37.492;2023-03-16T03:09:56;23.92;;;17.35;;
49890;SDS011;35780;55.568;37.492;2023-03-16T03:12:22;23.85;;;16.88;;
49890;SDS011;35780;55.568;37.492;2023-03-16T03:14:48;26.73;;;17.73;;
49890;SDS011;35780;55.568;37.492;2023-03-16T03:17:13;21.80;;;16.65;;
49890;SDS011;35780;55.568;37.492;2023-03-16T03:19:39;25.23;;;17.40;;
49890;SDS011;35780;55.568;37.492;2023-03-16T03:22:05;24.55;;;17.08;;
49890;SDS011;35780;55.568;37.492;2023-03-16T03:24:31;25.33;;;17.95;;
49890;SDS011;35780;55.568;37.492;2023-03-16T03:26:57;24.25;;;17.13;;
49890;SDS011;35780;55.568;37.492;2023-03-16T03:29:30;34.70;;;18.20;;
49890;SDS011;35780;55.568;37.492;2023-03-16T03:32:04;23.42;;;16.50;;
49890;SDS011;35780;55.568;37.492;2023-03-16T03:34:30;29.98;;;17.75;;
49890;SDS011;35780;55.568;37.492;2023-03-16T03:36:56;24.08;;;16.92;;
49890;SDS011;35780;55.568;37.492;2023-03-16T03:39:22;30.42;;;17.75;;
49890;SDS011;35780;55.568;37.492;2023-03-16T03:41:48;27.13;;;16.88;;
49890;SDS011;35780;55.568;37.492;2023-03-16T03:44:14;23.27;;;15.32;;
49890;SDS011;35780;55.568;37.492;2023-03-16T03:46:39;25.63;;;18.20;;
49890;SDS011;35780;55.568;37.492;2023-03-16T03:49:05;24.65;;;16.55;;
49890;SDS011;35780;55.568;37.492;2023-03-16T03:51:31;23.10;;;15.20;;
49890;SDS011;35780;55.568;37.492;2023-03-16T03:53:57;27.48;;;15.38;;
49890;SDS011;35780;55.568;37.492;2023-03-16T03:56:23;23.30;;;15.50;;
49890;SDS011;35780;55.568;37.492;2023-03-16T03:58:49;39.55;;;18.17;;
49890;SDS011;35780;55.568;37.492;2023-03-16T04:01:15;31.48;;;17.60;;
49890;SDS011;35780;55.568;37.492;2023-03-16T04:03:41;37.05;;;19.10;;
49890;SDS011;35780;55.568;37.492;2023-03-16T04:06:06;22.38;;;15.73;;
49890;SDS011;35780;55.568;37.492;2023-03-16T04:08:32;27.38;;;16.90;;
49890;SDS011;35780;55.568;37.492;2023-03-16T04:10:58;27.75;;;17.08;;
49890;SDS011;35780;55.568;37.492;2023-03-16T04:13:24;30.55;;;17.77;;
49890;SDS011;35780;55.568;37.492;2023-03-16T04:15:54;25.58;;;16.65;;
49890;SDS011;35780;55.568;37.492;2023-03-16T04:18:21;26.20;;;16.15;;
49890;SDS011;35780;55.568;37.492;2023-03-16T04:20:49;32.65;;;19.52;;
49890;SDS011;35780;55.568;37.492;2023-03-16T04:23:18;27.50;;;18.33;;
49890;SDS011;35780;55.568;37.492;2023-03-16T04:25:44;21.98;;;14.90;;
49890;SDS011;35780;55.568;37.492;2023-03-16T04:28:10;28.95;;;18.98;;
49890;SDS011;35780;55.568;37.492;2023-03-16T04:30:36;37.03;;;18.15;;
49890;SDS011;35780;55.568;37.492;2023-03-16T04:33:01;33.47;;;17.55;;
49890;SDS011;35780;55.568;37.492;2023-03-16T04:35:27;27.98;;;18.48;;
49890;SDS011;35780;55.568;37.492;2023-03-16T04:37:52;29.73;;;17.02;;
49890;SDS011;35780;55.568;37.492;2023-03-16T04:40:18;30.92;;;19.33;;
49890;SDS011;35780;55.568;37.492;2023-03-16T04:42:45;30.85;;;18.88;;
49890;SDS011;35780;55.568;37.492;2023-03-16T04:45:12;30.70;;;20.48;;
49890;SDS011;35780;55.568;37.492;2023-03-16T04:47:38;31.65;;;19.60;;
49890;SDS011;35780;55.568;37.492;2023-03-16T04:50:04;28.33;;;16.30;;
49890;SDS011;35780;55.568;37.492;2023-03-16T04:52:30;31.33;;;17.35;;
49890;SDS011;35780;55.568;37.492;2023-03-16T04:54:56;33.63;;;19.25;;
49890;SDS011;35780;55.568;37.492;2023-03-16T04:57:22;33.13;;;19.67;;
49890;SDS011;35780;55.568;37.492;2023-03-16T04:59:48;27.85;;;18.13;;
49890;SDS011;35780;55.568;37.492;2023-03-16T05:02:13;30.52;;;18.98;;
49890;SDS011;35780;55.568;37.492;2023-03-16T05:04:39;29.48;;;19.38;;
49890;SDS011;35780;55.568;37.492;2023-03-16T05:07:04;17.13;;;11.40;;
49890;SDS011;35780;55.568;37.492;2023-03-16T05:09:30;31.50;;;18.02;;
49890;SDS011;35780;55.568;37.492;2023-03-16T05:11:56;37.20;;;19.80;;
49890;SDS011;35780;55.568;37.492;2023-03-16T05:14:22;33.55;;;19.42;;
49890;SDS011;35780;55.568;37.492;2023-03-16T05:16:48;27.65;;;19.65;;
49890;SDS011;35780;55.568;37.492;2023-03-16T05:19:13;32.95;;;16.13;;
49890;SDS011;35780;55.568;37.492;2023-03-16T05:21:39;26.80;;;18.27;;
49890;SDS011;35780;55.568;37.492;2023-03-16T05:24:04;24.02;;;16.08;;
49890;SDS011;35780;55.568;37.492;2023-03-16T05:26:30;24.40;;;17.80;;
49890;SDS011;35780;55.568;37.492;2023-03-16T05:28:56;26.10;;;17.00;;
49890;SDS011;35780;55.568;37.492;2023-03-16T05:31:22;20.65;;;16.05;;
49890;SDS011;35780;55.568;37.492;2023-03-16T05:33:50;25.48;;;16.85;;
49890;SDS011;35780;55.568;37.492;2023-03-16T05:36:16;22.38;;;16.70;;
49890;SDS011;35780;55.568;37.492;2023-03-16T05:38:42;27.00;;;17.35;;
49890;SDS011;35780;55.568;37.492;2023-03-16T05:41:07;23.05;;;15.60;;
49890;SDS011;35780;55.568;37.492;2023-03-16T05:43:33;25.17;;;16.23;;
49890;SDS011;35780;55.568;37.492;2023-03-16T05:45:59;23.85;;;15.90;;
49890;SDS011;35780;55.568;37.492;2023-03-16T05:48:24;26.35;;;16.60;;
49890;SDS011;35780;55.568;37.492;2023-03-16T05:50:50;21.52;;;16.67;;
49890;SDS011;35780;55.568;37.492;2023-03-16T05:53:16;25.10;;;15.70;;
49890;SDS011;35780;55.568;37.492;2023-03-16T05:55:42;24.80;;;16.27;;
49890;SDS011;35780;55.568;37.492;2023-03-16T05:58:08;22.00;;;16.17;;
49890;SDS011;35780;55.568;37.492;2023-03-16T06:00:34;25.70;;;17.23;;
49890;SDS011;35780;55.568;37.492;2023-03-16T06:03:00;25.98;;;15.00;;
49890;SDS011;35780;55.568;37.492;2023-03-16T06:05:25;31.08;;;16.85;;
49890;SDS011;35780;55.568;37.492;2023-03-16T06:07:52;28.88;;;16.13;;
49890;SDS011;35780;55.568;37.492;2023-03-16T06:10:18;25.20;;;16.77;;
49890;SDS011;35780;55.568;37.492;2023-03-16T06:12:44;25.00;;;16.20;;
49890;SDS011;35780;55.568;37.492;2023-03-16T06:15:10;28.13;;;17.55;;
49890;SDS011;35780;55.568;37.492;2023-03-16T06:17:36;21.60;;;15.55;;
49890;SDS011;35780;55.568;37.492;2023-03-16T06:20:03;25.65;;;16.73;;
49890;SDS011;35780;55.568;37.492;2023-03-16T06:22:36;27.45;;;16.42;;
49890;SDS011;35780;55.568;37.492;2023-03-16T06:25:03;24.10;;;16.83;;
49890;SDS011;35780;55.568;37.492;2023-03-16T06:27:28;24.48;;;15.73;;
49890;SDS011;35780;55.568;37.492;2023-03-16T06:29:54;23.35;;;15.80;;
49890;SDS011;35780;55.568;37.492;2023-03-16T06:32:20;25.30;;;17.10;;
49890;SDS011;35780;55.568;37.492;2023-03-16T06:34:46;29.70;;;17.83;;
49890;SDS011;35780;55.568;37.492;2023-03-16T06:37:12;26.77;;;18.50;;
49890;SDS011;35780;55.568;37.492;2023-03-16T06:39:38;25.73;;;16.80;;
49890;SDS011;35780;55.568;37.492;2023-03-16T06:42:03;28.00;;;17.27;;
49890;SDS011;35780;55.568;37.492;2023-03-16T06:44:29;27.15;;;18.27;;
49890;SDS011;35780;55.568;37.492;2023-03-16T06:46:55;23.52;;;17.50;;
49890;SDS011;35780;55.568;37.492;2023-03-16T06:49:21;29.45;;;17.10;;
49890;SDS011;35780;55.568;37.492;2023-03-16T06:51:47;28.33;;;16.98;;
49890;SDS011;35780;55.568;37.492;2023-03-16T06:54:12;24.10;;;16.77;;
49890;SDS011;35780;55.568;37.492;2023-03-16T06:56:38;34.90;;;18.95;;
49890;SDS011;35780;55.568;37.492;2023-03-16T06:59:04;28.25;;;19.02;;
49890;SDS011;35780;55.568;37.492;2023-03-16T07:01:29;41.05;;;23.02;;
49890;SDS011;35780;55.568;37.492;2023-03-16T07:03:55;27.20;;;17.85;;
49890;SDS011;35780;55.568;37.492;2023-03-16T07:06:21;31.80;;;19.92;;
49890;SDS011;35780;55.568;37.492;2023-03-16T07:08:46;31.67;;;19.23;;
49890;SDS011;35780;55.568;37.492;2023-03-16T07:11:12;36.53;;;23.58;;
49890;SDS011;35780;55.568;37.492;2023-03-16T07:13:39;31.52;;;18.50;;
49890;SDS011;35780;55.568;37.492;2023-03-16T07:16:05;30.17;;;20.35;;
49890;SDS011;35780;55.568;37.492;2023-03-16T07:18:31;33.72;;;19.60;;
49890;SDS011;35780;55.568;37.492;2023-03-16T07:20:57;35.92;;;21.45;;
49890;SDS011;35780;55.568;37.492;2023-03-16T07:23:23;29.58;;;18.40;;
49890;SDS011;35780;55.568;37.492;2023-03-16T07:25:49;28.55;;;18.65;;
49890;SDS011;35780;55.568;37.492;2023-03-16T07:28:16;29.10;;;20.30;;
49890;SDS011;35780;55.568;37.492;2023-03-16T07:30:43;29.33;;;19.40;;
49890;SDS011;35780;55.568;37.492;2023-03-16T07:33:10;28.98;;;17.17;;
49890;SDS011;35780;55.568;37.492;2023-03-16T07:35:36;25.00;;;17.85;;
49890;SDS011;35780;55.568;37.492;2023-03-16T07:38:02;30.40;;;19.35;;
49890;SDS011;35780;55.568;37.492;2023-03-16T07:40:28;29.10;;;19.00;;
49890;SDS011;35780;55.568;37.492;2023-03-16T07:42:53;31.38;;;17.38;;
49890;SDS011;35780;55.568;37.492;2023-03-16T07:45:19;22.55;;;16.13;;
49890;SDS011;35780;55.568;37.492;2023-03-16T07:47:45;22.45;;;15.82;;
49890;SDS011;35780;55.568;37.492;2023-03-16T07:50:11;22.85;;;16.75;;
49890;SDS011;35780;55.568;37.492;2023-03-16T07:52:37;25.55;;;16.33;;
49890;SDS011;35780;55.568;37.492;2023-03-16T07:55:04;23.23;;;18.20;;
49890;SDS011;35780;55.568;37.492;2023-03-16T07:57:30;26.25;;;17.90;;
49890;SDS011;35780;55.568;37.492;2023-03-16T07:59:55;27.40;;;19.02;;
49890;SDS011;35780;55.568;37.492;2023-03-16T08:02:22;25.85;;;19.25;;
49890;SDS011;35780;55.568;37.492;2023-03-16T08:04:48;26.33;;;18.55;;
49890;SDS011;35780;55.568;37.492;2023-03-16T08:07:13;21.80;;;16.48;;
49890;SDS011;35780;55.568;37.492;2023-03-16T08:09:40;26.70;;;17.10;;
49890;SDS011;35780;55.568;37.492;2023-03-16T08:12:06;27.40;;;17.80;;
49890;SDS011;35780;55.568;37.492;2023-03-16T08:14:32;28.52;;;17.67;;
49890;SDS011;35780;55.568;37.492;2023-03-16T08:17:01;24.50;;;17.35;;
49890;SDS011;35780;55.568;37.492;2023-03-16T08:19:32;24.73;;;17.83;;
49890;SDS011;35780;55.568;37.492;2023-03-16T08:21:58;30.25;;;19.83;;
49890;SDS011;35780;55.568;37.492;2023-03-16T08:24:25;33.63;;;21.58;;
49890;SDS011;35780;55.568;37.492;2023-03-16T08:26:52;22.83;;;17.63;;
49890;SDS011;35780;55.568;37.492;2023-03-16T08:29:17;24.15;;;17.52;;
49890;SDS011;35780;55.568;37.492;2023-03-16T08:31:43;28.20;;;19.30;;
49890;SDS011;35780;55.568;37.492;2023-03-16T08:34:09;23.73;;;17.20;;
49890;SDS011;35780;55.568;37.492;2023-03-16T08:36:35;26.40;;;17.95;;
49890;SDS011;35780;55.568;37.492;2023-03-16T08:39:02;24.13;;;18.30;;
49890;SDS011;35780;55.568;37.492;2023-03-16T08:41:30;24.73;;;17.48;;
49890;SDS011;35780;55.568;37.492;2023-03-16T08:43:57;24.90;;;17.70;;
49890;SDS011;35780;55.568;37.492;2023-03-16T08:46:23;29.48;;;18.08;;
49890;SDS011;35780;55.568;37.492;2023-03-16T08:48:48;25.77;;;19.25;;
49890;SDS011;35780;55.568;37.492;2023-03-16T08:51:14;28.17;;;18.17;;
49890;SDS011;35780;55.568;37.492;2023-03-16T08:53:41;35.50;;;18.95;;
49890;SDS011;35780;55.568;37.492;2023-03-16T08:56:09;29.70;;;19.13;;
49890;SDS011;35780;55.568;37.492;2023-03-16T08:58:36;26.77;;;17.70;;
49890;SDS011;35780;55.568;37.492;2023-03-16T09:01:03;26.55;;;20.38;;
49890;SDS011;35780;55.568;37.492;2023-03-16T09:03:30;27.65;;;19.70;;
49890;SDS011;35780;55.568;37.492;2023-03-16T09:06:04;30.85;;;19.73;;
49890;SDS011;35780;55.568;37.492;2023-03-16T09:08:31;30.17;;;18.95;;
49890;SDS011;35780;55.568;37.492;2023-03-16T09:11:00;26.15;;;18.63;;
49890;SDS011;35780;55.568;37.492;2023-03-16T09:13:31;35.17;;;21.85;;
49890;SDS011;35780;55.568;37.492;2023-03-16T09:15:57;29.88;;;21.08;;
49890;SDS011;35780;55.568;37.492;2023-03-16T09:18:24;30.92;;;21.65;;
49890;SDS011;35780;55.568;37.492;2023-03-16T09:20:57;31.55;;;19.80;;
49890;SDS011;35780;55.568;37.492;2023-03-16T09:23:24;32.15;;;21.67;;
49890;SDS011;35780;55.568;37.492;2023-03-16T09:25:50;30.45;;;21.95;;
49890;SDS011;35780;55.568;37.492;2023-03-16T09:28:17;28.08;;;21.27;;
49890;SDS011;35780;55.568;37.492;2023-03-16T09:30:43;31.05;;;17.48;;
49890;SDS011;35780;55.568;37.492;2023-03-16T09:33:09;35.50;;;19.85;;
49890;SDS011;35780;55.568;37.492;2023-03-16T09:35:34;31.08;;;19.17;;
49890;SDS011;35780;55.568;37.492;2023-03-16T09:38:01;29.95;;;18.67;;
49890;SDS011;35780;55.568;37.492;2023-03-16T09:40:28;26.90;;;17.38;;
49890;SDS011;35780;55.568;37.492;2023-03-16T09:48:44;27.42;;;18.52;;
49890;SDS011;35780;55.568;37.492;2023-03-16T09:51:35;21.05;;;16.65;;
49890;SDS011;35780;55.568;37.492;2023-03-16T09:54:04;19.50;;;14.88;;
49890;SDS011;35780;55.568;37.492;2023-03-16T09:56:55;23.67;;;16.38;;
49890;SDS011;35780;55.568;37.492;2023-03-16T09:59:21;25.00;;;17.40;;
49890;SDS011;35780;55.568;37.492;2023-03-16T10:02:01;24.25;;;16.00;;
49890;SDS011;35780;55.568;37.492;2023-03-16T10:04:42;20.83;;;16.02;;
49890;SDS011;35780;55.568;37.492;2023-03-16T10:07:21;18.50;;;14.93;;
49890;SDS011;35780;55.568;37.492;2023-03-16T10:10:00;19.05;;;14.38;;
49890;SDS011;35780;55.568;37.492;2023-03-16T10:12:35;20.83;;;14.88;;
49890;SDS011;35780;55.568;37.492;2023-03-16T10:15:05;21.33;;;16.55;;
49890;SDS011;35780;55.568;37.492;2023-03-16T10:17:38;21.15;;;16.33;;
49890;SDS011;35780;55.568;37.492;2023-03-16T10:20:10;22.25;;;16.83;;
49890;SDS011;35780;55.568;37.492;2023-03-16T10:22:42;19.95;;;16.17;;
49890;SDS011;35780;55.568;37.492;2023-03-16T10:27:39;24.23;;;17.38;;
49890;SDS011;35780;55.568;37.492;2023-03-16T10:32:49;21.08;;;15.75;;
49890;SDS011;35780;55.568;37.492;2023-03-16T10:38:32;23.80;;;15.70;;
49890;SDS011;35780;55.568;37.492;2023-03-16T10:41:04;31.95;;;20.23;;
49890;SDS011;35780;55.568;37.492;2023-03-16T10:43:42;23.85;;;17.17;;
49890;SDS011;35780;55.568;37.492;2023-03-16T10:46:10;50.28;;;24.20;;
49890;SDS011;35780;55.568;37.492;2023-03-16T10:48:37;45.15;;;22.08;;
49890;SDS011;35780;55.568;37.492;2023-03-16T10:51:12;32.00;;;18.98;;
49890;SDS011;35780;55.568;37.492;2023-03-16T10:53:40;31.63;;;19.27;;
49890;SDS011;35780;55.568;37.492;2023-03-16T10:58:41;25.38;;;18.25;;
49890;SDS011;35780;55.568;37.492;2023-03-16T11:01:18;25.75;;;18.58;;
49890;SDS011;35780;55.568;37.492;2023-03-16T11:03:49;30.92;;;19.23;;
49890;SDS011;35780;55.568;37.492;2023-03-16T11:06:22;24.48;;;18.45;;
49890;SDS011;35780;55.568;37.492;2023-03-16T11:09:01;26.58;;;19.17;;
49890;SDS011;35780;55.568;37.492;2023-03-16T11:11:37;29.10;;;21.58;;
49890;SDS011;35780;55.568;37.492;2023-03-16T11:14:08;30.48;;;20.30;;
49890;SDS011;35780;55.568;37.492;2023-03-16T11:16:41;35.35;;;22.75;;
49890;SDS011;35780;55.568;37.492;2023-03-16T11:19:20;31.38;;;21.17;;
49890;SDS011;35780;55.568;37.492;2023-03-16T11:32:37;29.08;;;20.27;;
49890;SDS011;35780;55.568;37.492;2023-03-16T11:35:11;27.90;;;21.77;;
49890;SDS011;35780;55.568;37.492;2023-03-16T12:17:48;37.67;;;26.27;;
49890;SDS011;35780;55.568;37.492;2023-03-16T12:22:43;32.15;;;24.58;;
49890;SDS011;35780;55.568;37.492;2023-03-16T12:25:21;47.30;;;34.55;;
49890;SDS011;35780;55.568;37.492;2023-03-16T12:27:50;39.17;;;27.50;;
49890;SDS011;35780;55.568;37.492;2023-03-16T12:41:21;39.45;;;27.63;;
49890;SDS011;35780;55.568;37.492;2023-03-16T12:44:08;37.42;;;26.08;;
49890;SDS011;35780;55.568;37.492;2023-03-16T12:49:37;45.17;;;28.20;;
49890;SDS011;35780;55.568;37.492;2023-03-16T12:52:07;36.10;;;25.40;;
49890;SDS011;35780;55.568;37.492;2023-03-16T12:54:34;28.77;;;20.65;;
49890;SDS011;35780;55.568;37.492;2023-03-16T12:57:06;32.70;;;21.65;;
49890;SDS011;35780;55.568;37.492;2023-03-16T12:59:37;30.73;;;22.35;;
49890;SDS011;35780;55.568;37.492;2023-03-16T13:02:10;33.58;;;24.17;;
49890;SDS011;35780;55.568;37.492;2023-03-16T13:04:41;34.78;;;25.55;;
49890;SDS011;35780;55.568;37.492;2023-03-16T13:07:09;35.85;;;25.65;;
49890;SDS011;35780;55.568;37.492;2023-03-16T13:10:20;40.15;;;26.45;;
49890;SDS011;35780;55.568;37.492;2023-03-16T13:12:40;43.03;;;28.02;;
49890;SDS011;35780;55.568;37.492;2023-03-16T13:17:46;45.13;;;27.60;;
49890;SDS011;35780;55.568;37.492;2023-03-16T13:20:23;35.92;;;25.50;;
49890;SDS011;35780;55.568;37.492;2023-03-16T13:23:05;41.28;;;25.73;;
49890;SDS011;35780;55.568;37.492;2023-03-16T13:25:39;35.50;;;23.30;;
49890;SDS011;35780;55.568;37.492;2023-03-16T13:28:10;47.20;;;29.25;;
49890;SDS011;35780;55.568;37.492;2023-03-16T13:30:42;41.47;;;26.92;;
49890;SDS011;35780;55.568;37.492;2023-03-16T13:35:49;43.97;;;28.80;;
49890;SDS011;35780;55.568;37.492;2023-03-16T13:38:16;49.03;;;30.20;;
49890;SDS011;35780;55.568;37.492;2023-03-16T13:40:44;42.75;;;28.45;;
49890;SDS011;35780;55.568;37.492;2023-03-16T13:43:15;48.67;;;28.17;;
49890;SDS011;35780;55.568;37.492;2023-03-16T13:45:47;44.70;;;28.48;;
49890;SDS011;35780;55.568;37.492;2023-03-16T13:48:13;46.20;;;29.05;;
49890;SDS011;35780;55.568;37.492;2023-03-16T13:50:40;50.30;;;32.30;;
49890;SDS011;35780;55.568;37.492;2023-03-16T13:53:12;55.65;;;33.22;;
49890;SDS011;35780;55.568;37.492;2023-03-16T13:55:42;46.13;;;30.50;;
49890;SDS011;35780;55.568;37.492;2023-03-16T13:58:43;53.85;;;32.50;;
49890;SDS011;35780;55.568;37.492;2023-03-16T14:01:03;39.88;;;24.27;;
49890;SDS011;35780;55.568;37.492;2023-03-16T14:03:30;47.65;;;29.50;;
49890;SDS011;35780;55.568;37.492;2023-03-16T14:05:57;48.13;;;31.00;;
49890;SDS011;35780;55.568;37.492;2023-03-16T14:08:22;56.72;;;34.25;;
49890;SDS011;35780;55.568;37.492;2023-03-16T14:10:49;46.47;;;31.60;;
49890;SDS011;35780;55.568;37.492;2023-03-16T14:13:23;47.10;;;33.00;;
49890;SDS011;35780;55.568;37.492;2023-03-16T14:15:55;49.10;;;32.75;;
49890;SDS011;35780;55.568;37.492;2023-03-16T14:18:43;50.60;;;31.88;;
49890;SDS011;35780;55.568;37.492;2023-03-16T14:21:24;58.58;;;34.88;;
49890;SDS011;35780;55.568;37.492;2023-03-16T14:23:57;52.25;;;32.00;;
49890;SDS011;35780;55.568;37.492;2023-03-16T14:26:38;47.33;;;30.85;;
49890;SDS011;35780;55.568;37.492;2023-03-16T14:29:22;44.67;;;31.55;;
49890;SDS011;35780;55.568;37.492;2023-03-16T14:31:50;45.47;;;30.77;;
49890;SDS011;35780;55.568;37.492;2023-03-16T14:34:20;44.17;;;30.77;;
49890;SDS011;35780;55.568;37.492;2023-03-16T14:36:46;52.30;;;33.53;;
49890;SDS011;35780;55.568;37.492;2023-03-16T14:39:15;48.72;;;33.72;;
49890;SDS011;35780;55.568;37.492;2023-03-16T14:41:47;48.22;;;34.28;;
49890;SDS011;35780;55.568;37.492;2023-03-16T14:44:32;54.42;;;37.28;;
49890;SDS011;35780;55.568;37.492;2023-03-16T14:47:00;52.05;;;34.40;;
49890;SDS011;35780;55.568;37.492;2023-03-16T14:49:27;60.75;;;41.15;;
49890;SDS011;35780;55.568;37.492;2023-03-16T14:51:58;61.17;;;37.80;;
49890;SDS011;35780;55.568;37.492;2023-03-16T14:54:26;57.20;;;36.55;;
49890;SDS011;35780;55.568;37.492;2023-03-16T14:56:53;58.53;;;37.63;;
49890;SDS011;35780;55.568;37.492;2023-03-16T14:59:20;59.97;;;37.25;;
49890;SDS011;35780;55.568;37.492;2023-03-16T15:01:46;58.65;;;33.13;;
49890;SDS011;35780;55.568;37.492;2023-03-16T15:04:14;51.70;;;31.48;;
49890;SDS011;35780;55.568;37.492;2023-03-16T15:06:48;49.92;;;32.47;;
49890;SDS011;35780;55.568;37.492;2023-03-16T15:09:23;48.72;;;31.23;;
49890;SDS011;35780;55.568;37.492;2023-03-16T15:11:53;50.70;;;32.78;;
49890;SDS011;35780;55.568;37.492;2023-03-16T15:14:19;48.88;;;33.60;;
49890;SDS011;35780;55.568;37.492;2023-03-16T15:17:05;46.45;;;32.95;;
49890;SDS011;35780;55.568;37.492;2023-03-16T15:19:32;62.80;;;34.30;;
49890;SDS011;35780;55.568;37.492;2023-03-16T15:21:57;47.70;;;33.05;;
49890;SDS011;35780;55.568;37.492;2023-03-16T15:24:24;53.53;;;34.05;;
49890;SDS011;35780;55.568;37.492;2023-03-16T15:26:53;58.63;;;34.08;;
49890;SDS011;35780;55.568;37.492;2023-03-16T15:29:19;59.75;;;37.13;;
49890;SDS011;35780;55.568;37.492;2023-03-16T15:31:44;69.32;;;39.13;;
49890;SDS011;35780;55.568;37.492;2023-03-16T15:34:10;65.55;;;39.25;;
49890;SDS011;35780;55.568;37.492;2023-03-16T15:36:36;72.07;;;40.38;;
49890;SDS011;35780;55.568;37.492;2023-03-16T15:39:01;67.35;;;38.13;;
49890;SDS011;35780;55.568;37.492;2023-03-16T15:41:27;57.30;;;37.55;;
49890;SDS011;35780;55.568;37.492;2023-03-16T15:43:53;53.97;;;34.80;;
49890;SDS011;35780;55.568;37.492;2023-03-16T15:46:24;60.30;;;36.03;;
49890;SDS011;35780;55.568;37.492;2023-03-16T15:48:52;45.38;;;30.75;;
49890;SDS011;35780;55.568;37.492;2023-03-16T15:51:25;48.75;;;31.45;;
49890;SDS011;35780;55.568;37.492;2023-03-16T15:53:52;46.30;;;31.23;;
49890;SDS011;35780;55.568;37.492;2023-03-16T15:56:20;43.53;;;31.52;;
49890;SDS011;35780;55.568;37.492;2023-03-16T15:58:50;47.10;;;29.25;;